Geneva, Switzerland

7:57 AM CET on October 26, 2014 (GMT +0100)
Cointrin | Change Station
CLOSE
Current Station
Airport
Location: Geneva,
Elevation: 1378 ft
Nearby Weather Stations

Elev 1378 ft 46.25 °N, 6.13 °E | Updated 7 minutes ago

Fog
Fog
43 °F
Feels Like 43 °F
N
1
Wind Variable Wind from Variable

Today
High -- | Low -- °F
--% Chance of Precip.
Yesterday
High -- | Low -- °F
Precip. -- in
7:07 AM 5:30 PM
Waxing Crescent, 6% visible
Pressure 30.27 in
Visibility 5.0 miles
Clouds Few 1500 ft
Dew Point 43 °F
Humidity 100%
Rainfall 0.00 in
Snow Depth Not available.
UV 0 out of 12
Pollen Not available.
Air Quality Not available.
Flu Activity Not available.
METAR LSGG 260650Z VRB01KT 8000 MIFG FEW015 06/06 Q1025 NOSIG

More Conditions Fewer Conditions

Pressure 30.27 in
Visibility 5.0 miles
Clouds Few 1500 ft
Dew Point 43 °F
Humidity 100%
Rainfall 0.00 in
Snow Depth Not available.
UV 0 out of 12
Pollen Not available.
Air Quality Not available.
Flu Activity Not available.
METAR LSGG 260650Z VRB01KT 8000 MIFG FEW015 06/06 Q1025 NOSIG

More Conditions Fewer Conditions

10-Day Weather Forecast

Almanac

Astronomy

Oct. 26, 2014 Rise Set
Actual Time 7:07 AM CET 5:30 PM CET
Civil Twilight 6:36 AM CET 6:01 PM CET
Nautical Twilight 6:01 AM CET 6:36 PM CET
Astronomical Twilight 5:26 AM CET 7:11 PM CET
Moon 9:35 AM CET 7:22 PM CET
Length of Visible Light 11h 24m
Length of Day
10h 22m
Tomorrow will be 3m 1s shorter.
Waxing Crescent, 6% of the Moon is Illuminated
Today
Waxing Crescent
Oct 30
First Quarter
Nov 6
Full
Nov 14
Last Quarter
Nov 22
New

Yesterday's Extremes

Country Highs Country Lows

Community

WunderPhotos

Upload Photos

1,765,117 photos uploaded!

Nearby

Snow Depth

Not available.

Earthquake Activity

City Distance Mag. Time & Date
No recent earthquake activity has been reported nearby.
Minimum magnitude displayed is 2.5.

Coastal Water Temperatures

Place Temperature
No Stations Reporting

Nearby Weather Stations